sensor_id;sensor_type;location;lat;lon;timestamp;temperature;humidity
75170;SHT31;63749;49.186;9.222;2023-06-26T00:00:44;19.12;75.18
75170;SHT31;63749;49.186;9.222;2023-06-26T00:03:09;19.14;75.03
75170;SHT31;63749;49.186;9.222;2023-06-26T00:05:43;19.08;75.37
75170;SHT31;63749;49.186;9.222;2023-06-26T00:08:08;19.07;75.72
75170;SHT31;63749;49.186;9.222;2023-06-26T00:10:34;19.05;75.90
75170;SHT31;63749;49.186;9.222;2023-06-26T00:13:00;18.95;75.88
75170;SHT31;63749;49.186;9.222;2023-06-26T00:15:26;18.91;76.33
75170;SHT31;63749;49.186;9.222;2023-06-26T00:17:51;18.85;76.23
75170;SHT31;63749;49.186;9.222;2023-06-26T00:20:16;18.89;74.76
75170;SHT31;63749;49.186;9.222;2023-06-26T00:22:43;18.85;75.36
75170;SHT31;63749;49.186;9.222;2023-06-26T00:25:10;18.85;75.65
75170;SHT31;63749;49.186;9.222;2023-06-26T00:27:35;18.81;75.42
75170;SHT31;63749;49.186;9.222;2023-06-26T00:30:01;18.74;75.37
75170;SHT31;63749;49.186;9.222;2023-06-26T00:32:26;18.80;74.39
75170;SHT31;63749;49.186;9.222;2023-06-26T00:34:51;18.77;73.94
75170;SHT31;63749;49.186;9.222;2023-06-26T00:37:18;18.70;73.99
75170;SHT31;63749;49.186;9.222;2023-06-26T00:39:43;18.61;74.36
75170;SHT31;63749;49.186;9.222;2023-06-26T00:42:08;18.49;74.70
75170;SHT31;63749;49.186;9.222;2023-06-26T00:44:34;18.40;74.92
75170;SHT31;63749;49.186;9.222;2023-06-26T00:46:59;18.32;75.26
75170;SHT31;63749;49.186;9.222;2023-06-26T00:49:26;18.20;75.64
75170;SHT31;63749;49.186;9.222;2023-06-26T00:51:51;18.17;75.96
75170;SHT31;63749;49.186;9.222;2023-06-26T00:54:17;18.16;75.97
75170;SHT31;63749;49.186;9.222;2023-06-26T00:56:46;18.16;76.15
75170;SHT31;63749;49.186;9.222;2023-06-26T00:59:12;18.02;76.05
75170;SHT31;63749;49.186;9.222;2023-06-26T01:01:38;17.99;76.15
75170;SHT31;63749;49.186;9.222;2023-06-26T01:04:03;17.95;76.35
75170;SHT31;63749;49.186;9.222;2023-06-26T01:06:29;17.92;76.56
75170;SHT31;63749;49.186;9.222;2023-06-26T01:09:01;17.93;76.40
75170;SHT31;63749;49.186;9.222;2023-06-26T01:11:27;17.93;76.22
75170;SHT31;63749;49.186;9.222;2023-06-26T01:13:53;17.91;76.33
75170;SHT31;63749;49.186;9.222;2023-06-26T01:16:21;17.82;76.55
75170;SHT31;63749;49.186;9.222;2023-06-26T01:18:47;17.75;76.96
75170;SHT31;63749;49.186;9.222;2023-06-26T01:21:14;17.75;76.78
75170;SHT31;63749;49.186;9.222;2023-06-26T01:26:20;17.81;76.70
75170;SHT31;63749;49.186;9.222;2023-06-26T01:28:46;17.82;76.79
75170;SHT31;63749;49.186;9.222;2023-06-26T01:31:12;17.79;76.64
75170;SHT31;63749;49.186;9.222;2023-06-26T01:33:40;17.75;76.74
75170;SHT31;63749;49.186;9.222;2023-06-26T01:36:07;17.69;77.25
75170;SHT31;63749;49.186;9.222;2023-06-26T01:38:32;17.61;77.38
75170;SHT31;63749;49.186;9.222;2023-06-26T01:40:58;17.54;77.37
75170;SHT31;63749;49.186;9.222;2023-06-26T01:46:24;17.40;77.93
75170;SHT31;63749;49.186;9.222;2023-06-26T01:48:59;17.30;77.97
75170;SHT31;63749;49.186;9.222;2023-06-26T01:51:35;17.30;78.09
75170;SHT31;63749;49.186;9.222;2023-06-26T01:54:10;17.28;78.07
75170;SHT31;63749;49.186;9.222;2023-06-26T01:56:38;17.27;78.18
75170;SHT31;63749;49.186;9.222;2023-06-26T01:59:04;17.20;78.32
75170;SHT31;63749;49.186;9.222;2023-06-26T02:01:31;17.20;78.20
75170;SHT31;63749;49.186;9.222;2023-06-26T02:03:58;17.17;78.10
75170;SHT31;63749;49.186;9.222;2023-06-26T02:06:23;17.14;78.06
75170;SHT31;63749;49.186;9.222;2023-06-26T02:08:49;17.09;78.38
75170;SHT31;63749;49.186;9.222;2023-06-26T02:11:14;17.11;78.12
75170;SHT31;63749;49.186;9.222;2023-06-26T02:13:39;17.04;78.33
75170;SHT31;63749;49.186;9.222;2023-06-26T02:16:05;17.06;78.29
75170;SHT31;63749;49.186;9.222;2023-06-26T02:18:30;17.10;78.23
75170;SHT31;63749;49.186;9.222;2023-06-26T02:20:55;17.09;78.17
75170;SHT31;63749;49.186;9.222;2023-06-26T02:23:21;17.02;78.30
75170;SHT31;63749;49.186;9.222;2023-06-26T02:25:46;17.02;78.36
75170;SHT31;63749;49.186;9.222;2023-06-26T02:28:11;17.03;78.29
75170;SHT31;63749;49.186;9.222;2023-06-26T02:30:37;16.99;78.29
75170;SHT31;63749;49.186;9.222;2023-06-26T02:33:02;16.96;78.31
75170;SHT31;63749;49.186;9.222;2023-06-26T02:35:27;16.93;78.63
75170;SHT31;63749;49.186;9.222;2023-06-26T02:37:53;16.86;78.69
75170;SHT31;63749;49.186;9.222;2023-06-26T02:40:18;16.76;79.09
75170;SHT31;63749;49.186;9.222;2023-06-26T02:42:43;16.77;80.13
75170;SHT31;63749;49.186;9.222;2023-06-26T02:45:09;16.86;82.46
75170;SHT31;63749;49.186;9.222;2023-06-26T02:47:34;16.84;82.55
75170;SHT31;63749;49.186;9.222;2023-06-26T02:50:00;16.80;83.03
75170;SHT31;63749;49.186;9.222;2023-06-26T02:52:25;16.79;83.59
75170;SHT31;63749;49.186;9.222;2023-06-26T02:54:53;16.75;83.56
75170;SHT31;63749;49.186;9.222;2023-06-26T02:57:19;16.68;84.09
75170;SHT31;63749;49.186;9.222;2023-06-26T02:59:44;16.65;84.18
75170;SHT31;63749;49.186;9.222;2023-06-26T03:02:09;16.59;84.22
75170;SHT31;63749;49.186;9.222;2023-06-26T03:04:35;16.61;84.45
75170;SHT31;63749;49.186;9.222;2023-06-26T03:07:02;16.52;84.57
75170;SHT31;63749;49.186;9.222;2023-06-26T03:09:27;16.44;84.57
75170;SHT31;63749;49.186;9.222;2023-06-26T03:11:53;16.41;85.23
75170;SHT31;63749;49.186;9.222;2023-06-26T03:14:20;16.40;85.73
75170;SHT31;63749;49.186;9.222;2023-06-26T03:16:46;16.34;85.82
75170;SHT31;63749;49.186;9.222;2023-06-26T03:19:11;16.34;85.97
75170;SHT31;63749;49.186;9.222;2023-06-26T03:21:36;16.31;86.14
75170;SHT31;63749;49.186;9.222;2023-06-26T03:24:02;16.26;86.39
75170;SHT31;63749;49.186;9.222;2023-06-26T03:26:27;16.21;86.48
75170;SHT31;63749;49.186;9.222;2023-06-26T03:28:54;16.15;86.90
75170;SHT31;63749;49.186;9.222;2023-06-26T03:31:19;16.13;87.05
75170;SHT31;63749;49.186;9.222;2023-06-26T03:33:45;16.10;87.02
75170;SHT31;63749;49.186;9.222;2023-06-26T03:36:11;16.10;86.99
75170;SHT31;63749;49.186;9.222;2023-06-26T03:38:36;16.08;87.06
75170;SHT31;63749;49.186;9.222;2023-06-26T03:41:02;16.07;86.89
75170;SHT31;63749;49.186;9.222;2023-06-26T03:43:27;16.08;86.81
75170;SHT31;63749;49.186;9.222;2023-06-26T03:45:52;16.08;86.73
75170;SHT31;63749;49.186;9.222;2023-06-26T03:48:18;16.13;86.61
75170;SHT31;63749;49.186;9.222;2023-06-26T03:50:44;16.13;86.70
75170;SHT31;63749;49.186;9.222;2023-06-26T03:53:09;16.15;86.53
75170;SHT31;63749;49.186;9.222;2023-06-26T03:55:34;16.15;86.33
75170;SHT31;63749;49.186;9.222;2023-06-26T03:58:00;16.18;86.45
75170;SHT31;63749;49.186;9.222;2023-06-26T04:00:25;16.18;86.40
75170;SHT31;63749;49.186;9.222;2023-06-26T04:02:50;16.21;86.41
75170;SHT31;63749;49.186;9.222;2023-06-26T04:05:16;16.25;86.30
75170;SHT31;63749;49.186;9.222;2023-06-26T04:07:42;16.25;86.25
75170;SHT31;63749;49.186;9.222;2023-06-26T04:10:08;16.29;86.12
75170;SHT31;63749;49.186;9.222;2023-06-26T04:12:33;16.34;86.02
75170;SHT31;63749;49.186;9.222;2023-06-26T04:14:59;16.38;85.79
75170;SHT31;63749;49.186;9.222;2023-06-26T04:17:24;16.36;85.80
75170;SHT31;63749;49.186;9.222;2023-06-26T04:19:49;16.44;85.60
75170;SHT31;63749;49.186;9.222;2023-06-26T04:22:15;16.52;85.23
75170;SHT31;63749;49.186;9.222;2023-06-26T04:24:40;16.52;83.05
75170;SHT31;63749;49.186;9.222;2023-06-26T04:27:06;16.62;81.87
75170;SHT31;63749;49.186;9.222;2023-06-26T04:29:31;16.65;82.13
75170;SHT31;63749;49.186;9.222;2023-06-26T04:31:56;16.66;81.64
75170;SHT31;63749;49.186;9.222;2023-06-26T04:34:26;16.66;81.89
75170;SHT31;63749;49.186;9.222;2023-06-26T04:36:52;16.76;81.53
75170;SHT31;63749;49.186;9.222;2023-06-26T04:39:17;16.86;81.84
75170;SHT31;63749;49.186;9.222;2023-06-26T04:41:44;17.02;81.13
75170;SHT31;63749;49.186;9.222;2023-06-26T04:44:09;17.10;80.36
75170;SHT31;63749;49.186;9.222;2023-06-26T04:46:34;17.24;80.07
75170;SHT31;63749;49.186;9.222;2023-06-26T04:49:00;17.26;80.13
75170;SHT31;63749;49.186;9.222;2023-06-26T04:51:28;17.41;79.72
75170;SHT31;63749;49.186;9.222;2023-06-26T04:53:54;17.45;79.76
75170;SHT31;63749;49.186;9.222;2023-06-26T04:56:19;17.58;79.64
75170;SHT31;63749;49.186;9.222;2023-06-26T04:58:44;17.65;78.79
75170;SHT31;63749;49.186;9.222;2023-06-26T05:01:10;17.77;78.70
75170;SHT31;63749;49.186;9.222;2023-06-26T05:03:35;17.91;78.78
75170;SHT31;63749;49.186;9.222;2023-06-26T05:06:02;17.98;78.31
75170;SHT31;63749;49.186;9.222;2023-06-26T05:08:27;18.08;77.58
75170;SHT31;63749;49.186;9.222;2023-06-26T05:10:53;18.16;77.36
75170;SHT31;63749;49.186;9.222;2023-06-26T05:13:19;18.29;77.35
75170;SHT31;63749;49.186;9.222;2023-06-26T05:15:45;18.41;76.98
75170;SHT31;63749;49.186;9.222;2023-06-26T05:18:11;18.56;77.19
75170;SHT31;63749;49.186;9.222;2023-06-26T05:20:37;18.65;76.13
75170;SHT31;63749;49.186;9.222;2023-06-26T05:23:03;18.81;75.86
75170;SHT31;63749;49.186;9.222;2023-06-26T05:25:32;18.85;75.20
75170;SHT31;63749;49.186;9.222;2023-06-26T05:27:59;19.01;75.00
75170;SHT31;63749;49.186;9.222;2023-06-26T05:30:26;19.09;75.09
75170;SHT31;63749;49.186;9.222;2023-06-26T05:32:54;19.23;75.11
75170;SHT31;63749;49.186;9.222;2023-06-26T05:35:22;19.28;73.84
75170;SHT31;63749;49.186;9.222;2023-06-26T05:37:49;19.39;73.87
75170;SHT31;63749;49.186;9.222;2023-06-26T05:40:18;19.53;73.53
75170;SHT31;63749;49.186;9.222;2023-06-26T05:42:44;19.69;73.29
75170;SHT31;63749;49.186;9.222;2023-06-26T05:45:10;19.77;73.30
75170;SHT31;63749;49.186;9.222;2023-06-26T05:47:36;19.83;72.46
75170;SHT31;63749;49.186;9.222;2023-06-26T05:50:02;19.86;70.24
75170;SHT31;63749;49.186;9.222;2023-06-26T05:52:28;20.07;70.79
75170;SHT31;63749;49.186;9.222;2023-06-26T05:54:55;20.14;69.33
75170;SHT31;63749;49.186;9.222;2023-06-26T05:57:24;20.34;69.07
75170;SHT31;63749;49.186;9.222;2023-06-26T05:59:49;20.49;68.24
75170;SHT31;63749;49.186;9.222;2023-06-26T06:02:15;20.59;68.00
75170;SHT31;63749;49.186;9.222;2023-06-26T06:04:40;20.69;67.17
75170;SHT31;63749;49.186;9.222;2023-06-26T06:07:06;20.75;66.82
75170;SHT31;63749;49.186;9.222;2023-06-26T06:09:31;20.87;66.79
75170;SHT31;63749;49.186;9.222;2023-06-26T06:11:58;21.00;66.14
75170;SHT31;63749;49.186;9.222;2023-06-26T06:14:23;21.08;65.97
75170;SHT31;63749;49.186;9.222;2023-06-26T06:16:48;21.11;65.75
75170;SHT31;63749;49.186;9.222;2023-06-26T06:19:14;21.22;65.42
75170;SHT31;63749;49.186;9.222;2023-06-26T06:21:39;21.44;65.58
75170;SHT31;63749;49.186;9.222;2023-06-26T06:24:05;21.61;65.28
75170;SHT31;63749;49.186;9.222;2023-06-26T06:26:32;21.84;64.64
75170;SHT31;63749;49.186;9.222;2023-06-26T06:28:57;21.91;63.47
75170;SHT31;63749;49.186;9.222;2023-06-26T06:31:23;22.03;63.05
75170;SHT31;63749;49.186;9.222;2023-06-26T06:33:48;22.15;62.97
75170;SHT31;63749;49.186;9.222;2023-06-26T06:36:13;22.29;62.58
75170;SHT31;63749;49.186;9.222;2023-06-26T06:38:42;22.53;61.84
75170;SHT31;63749;49.186;9.222;2023-06-26T06:41:08;22.65;61.64
75170;SHT31;63749;49.186;9.222;2023-06-26T06:43:33;22.84;61.35
75170;SHT31;63749;49.186;9.222;2023-06-26T06:45:59;22.94;61.06
75170;SHT31;63749;49.186;9.222;2023-06-26T06:48:24;23.04;60.63
75170;SHT31;63749;49.186;9.222;2023-06-26T06:50:50;23.18;60.46
75170;SHT31;63749;49.186;9.222;2023-06-26T06:53:15;23.29;59.50
75170;SHT31;63749;49.186;9.222;2023-06-26T06:55:40;23.37;58.51
75170;SHT31;63749;49.186;9.222;2023-06-26T06:58:05;23.50;58.32
75170;SHT31;63749;49.186;9.222;2023-06-26T07:00:31;23.66;57.84
75170;SHT31;63749;49.186;9.222;2023-06-26T07:02:57;23.74;55.70
75170;SHT31;63749;49.186;9.222;2023-06-26T07:05:22;23.86;55.69
75170;SHT31;63749;49.186;9.222;2023-06-26T07:07:47;24.00;55.34
75170;SHT31;63749;49.186;9.222;2023-06-26T07:10:13;24.11;54.71
75170;SHT31;63749;49.186;9.222;2023-06-26T07:12:39;24.17;54.50
75170;SHT31;63749;49.186;9.222;2023-06-26T07:15:05;24.21;54.57
75170;SHT31;63749;49.186;9.222;2023-06-26T07:17:32;24.41;53.91
75170;SHT31;63749;49.186;9.222;2023-06-26T07:19:57;24.51;53.82
75170;SHT31;63749;49.186;9.222;2023-06-26T07:22:23;24.64;53.70
75170;SHT31;63749;49.186;9.222;2023-06-26T07:24:48;24.75;53.66
75170;SHT31;63749;49.186;9.222;2023-06-26T07:27:15;24.86;53.95
75170;SHT31;63749;49.186;9.222;2023-06-26T07:29:40;24.88;53.54
75170;SHT31;63749;49.186;9.222;2023-06-26T07:32:06;25.00;52.96
75170;SHT31;63749;49.186;9.222;2023-06-26T07:34:31;25.16;52.97
75170;SHT31;63749;49.186;9.222;2023-06-26T07:36:57;25.34;52.88
75170;SHT31;63749;49.186;9.222;2023-06-26T07:39:22;25.51;51.84
75170;SHT31;63749;49.186;9.222;2023-06-26T07:41:47;25.65;50.31
75170;SHT31;63749;49.186;9.222;2023-06-26T07:44:13;25.82;49.84
75170;SHT31;63749;49.186;9.222;2023-06-26T07:46:39;26.12;49.83
75170;SHT31;63749;49.186;9.222;2023-06-26T07:49:05;26.32;49.60
75170;SHT31;63749;49.186;9.222;2023-06-26T07:51:31;26.40;48.95
75170;SHT31;63749;49.186;9.222;2023-06-26T07:53:57;26.53;48.50
75170;SHT31;63749;49.186;9.222;2023-06-26T07:56:22;26.60;47.40
75170;SHT31;63749;49.186;9.222;2023-06-26T07:58:47;26.83;48.03
75170;SHT31;63749;49.186;9.222;2023-06-26T08:01:13;26.95;47.31
75170;SHT31;63749;49.186;9.222;2023-06-26T08:03:38;27.21;47.04
75170;SHT31;63749;49.186;9.222;2023-06-26T08:06:04;27.20;46.32
75170;SHT31;63749;49.186;9.222;2023-06-26T08:08:29;27.46;45.07
75170;SHT31;63749;49.186;9.222;2023-06-26T08:10:54;27.59;44.80
75170;SHT31;63749;49.186;9.222;2023-06-26T08:13:20;27.61;44.55
75170;SHT31;63749;49.186;9.222;2023-06-26T08:15:45;27.66;45.17
75170;SHT31;63749;49.186;9.222;2023-06-26T08:18:10;27.83;45.40
75170;SHT31;63749;49.186;9.222;2023-06-26T08:20:36;27.88;43.73
75170;SHT31;63749;49.186;9.222;2023-06-26T08:23:03;27.92;44.19
75170;SHT31;63749;49.186;9.222;2023-06-26T08:25:29;27.96;43.77
75170;SHT31;63749;49.186;9.222;2023-06-26T08:27:54;28.11;44.02
75170;SHT31;63749;49.186;9.222;2023-06-26T08:30:20;28.33;44.47
75170;SHT31;63749;49.186;9.222;2023-06-26T08:32:46;28.50;43.36
75170;SHT31;63749;49.186;9.222;2023-06-26T08:35:11;28.45;42.49
75170;SHT31;63749;49.186;9.222;2023-06-26T08:37:37;28.64;43.04
75170;SHT31;63749;49.186;9.222;2023-06-26T08:40:03;28.67;43.11
75170;SHT31;63749;49.186;9.222;2023-06-26T08:42:29;28.79;43.02
75170;SHT31;63749;49.186;9.222;2023-06-26T08:44:54;28.94;42.50
75170;SHT31;63749;49.186;9.222;2023-06-26T08:47:20;29.12;42.62
75170;SHT31;63749;49.186;9.222;2023-06-26T08:49:51;29.19;42.11
75170;SHT31;63749;49.186;9.222;2023-06-26T08:52:30;29.19;41.75
75170;SHT31;63749;49.186;9.222;2023-06-26T08:54:58;29.27;42.34
75170;SHT31;63749;49.186;9.222;2023-06-26T08:57:25;29.37;41.55
75170;SHT31;63749;49.186;9.222;2023-06-26T08:59:51;29.51;41.73
75170;SHT31;63749;49.186;9.222;2023-06-26T09:02:17;29.63;41.12
75170;SHT31;63749;49.186;9.222;2023-06-26T09:04:43;29.74;41.26
75170;SHT31;63749;49.186;9.222;2023-06-26T09:07:08;29.84;41.09
75170;SHT31;63749;49.186;9.222;2023-06-26T09:09:34;29.88;40.80
75170;SHT31;63749;49.186;9.222;2023-06-26T09:12:01;30.00;40.83
75170;SHT31;63749;49.186;9.222;2023-06-26T09:14:27;30.11;40.64
75170;SHT31;63749;49.186;9.222;2023-06-26T09:16:53;30.26;40.72
75170;SHT31;63749;49.186;9.222;2023-06-26T09:19:18;30.43;40.36
75170;SHT31;63749;49.186;9.222;2023-06-26T09:21:44;30.38;40.12
75170;SHT31;63749;49.186;9.222;2023-06-26T09:24:10;30.42;40.42
75170;SHT31;63749;49.186;9.222;2023-06-26T09:26:36;30.51;40.11
75170;SHT31;63749;49.186;9.222;2023-06-26T09:29:03;30.51;39.79
75170;SHT31;63749;49.186;9.222;2023-06-26T09:31:28;30.69;40.17
75170;SHT31;63749;49.186;9.222;2023-06-26T09:34:00;30.72;40.08
75170;SHT31;63749;49.186;9.222;2023-06-26T09:36:28;30.82;39.84
75170;SHT31;63749;49.186;9.222;2023-06-26T09:38:58;30.62;40.30
75170;SHT31;63749;49.186;9.222;2023-06-26T09:41:24;30.69;40.58
75170;SHT31;63749;49.186;9.222;2023-06-26T09:43:50;30.83;40.33
75170;SHT31;63749;49.186;9.222;2023-06-26T09:46:17;31.11;39.94
75170;SHT31;63749;49.186;9.222;2023-06-26T09:48:43;30.97;39.71
75170;SHT31;63749;49.186;9.222;2023-06-26T09:51:09;31.08;39.91
75170;SHT31;63749;49.186;9.222;2023-06-26T09:53:35;31.68;39.38
75170;SHT31;63749;49.186;9.222;2023-06-26T09:56:15;31.79;38.15
75170;SHT31;63749;49.186;9.222;2023-06-26T09:58:42;32.06;38.49
75170;SHT31;63749;49.186;9.222;2023-06-26T10:01:08;32.19;38.01
75170;SHT31;63749;49.186;9.222;2023-06-26T10:03:35;32.24;37.75
75170;SHT31;63749;49.186;9.222;2023-06-26T10:06:00;31.88;38.89
75170;SHT31;63749;49.186;9.222;2023-06-26T10:08:28;31.23;38.90
75170;SHT31;63749;49.186;9.222;2023-06-26T10:10:54;31.23;39.09
75170;SHT31;63749;49.186;9.222;2023-06-26T10:13:26;30.86;40.09
75170;SHT31;63749;49.186;9.222;2023-06-26T10:15:53;30.86;40.71
75170;SHT31;63749;49.186;9.222;2023-06-26T10:18:21;30.55;41.52
75170;SHT31;63749;49.186;9.222;2023-06-26T10:20:50;30.90;41.01
75170;SHT31;63749;49.186;9.222;2023-06-26T10:23:19;30.32;41.95
75170;SHT31;63749;49.186;9.222;2023-06-26T10:25:48;29.73;43.38
75170;SHT31;63749;49.186;9.222;2023-06-26T10:28:15;29.60;43.95
75170;SHT31;63749;49.186;9.222;2023-06-26T10:30:42;29.63;43.77
75170;SHT31;63749;49.186;9.222;2023-06-26T10:33:09;29.87;43.74
75170;SHT31;63749;49.186;9.222;2023-06-26T10:35:42;30.14;43.34
75170;SHT31;63749;49.186;9.222;2023-06-26T10:38:07;30.43;43.19
75170;SHT31;63749;49.186;9.222;2023-06-26T10:40:45;30.87;42.57
75170;SHT31;63749;49.186;9.222;2023-06-26T10:43:12;31.13;41.61
75170;SHT31;63749;49.186;9.222;2023-06-26T10:45:47;31.21;41.69
75170;SHT31;63749;49.186;9.222;2023-06-26T10:48:17;31.54;41.56
75170;SHT31;63749;49.186;9.222;2023-06-26T10:50:43;31.31;41.25
75170;SHT31;63749;49.186;9.222;2023-06-26T10:53:35;30.70;42.02
75170;SHT31;63749;49.186;9.222;2023-06-26T10:56:05;30.63;42.98
75170;SHT31;63749;49.186;9.222;2023-06-26T10:58:40;30.86;42.50
75170;SHT31;63749;49.186;9.222;2023-06-26T11:03:42;30.32;44.08
75170;SHT31;63749;49.186;9.222;2023-06-26T11:06:09;30.11;44.33
75170;SHT31;63749;49.186;9.222;2023-06-26T11:08:52;29.94;44.84
75170;SHT31;63749;49.186;9.222;2023-06-26T11:11:21;30.60;44.37
75170;SHT31;63749;49.186;9.222;2023-06-26T11:13:47;30.69;43.76
75170;SHT31;63749;49.186;9.222;2023-06-26T11:16:14;30.72;43.62
75170;SHT31;63749;49.186;9.222;2023-06-26T11:18:40;30.49;44.62
75170;SHT31;63749;49.186;9.222;2023-06-26T11:23:32;31.07;43.81
75170;SHT31;63749;49.186;9.222;2023-06-26T11:26:21;31.06;43.93
75170;SHT31;63749;49.186;9.222;2023-06-26T11:28:57;30.96;43.52
75170;SHT31;63749;49.186;9.222;2023-06-26T11:31:30;30.98;43.28
75170;SHT31;63749;49.186;9.222;2023-06-26T11:33:56;30.91;43.49
75170;SHT31;63749;49.186;9.222;2023-06-26T11:36:26;31.25;43.39
75170;SHT31;63749;49.186;9.222;2023-06-26T11:38:55;31.46;42.22
75170;SHT31;63749;49.186;9.222;2023-06-26T11:41:22;31.54;41.99
75170;SHT31;63749;49.186;9.222;2023-06-26T11:43:48;31.64;42.42
75170;SHT31;63749;49.186;9.222;2023-06-26T11:46:17;32.12;41.64
75170;SHT31;63749;49.186;9.222;2023-06-26T11:48:43;32.34;41.07
75170;SHT31;63749;49.186;9.222;2023-06-26T11:51:08;32.67;40.58
75170;SHT31;63749;49.186;9.222;2023-06-26T11:53:39;33.00;39.75
75170;SHT31;63749;49.186;9.222;2023-06-26T11:56:10;32.34;40.98
75170;SHT31;63749;49.186;9.222;2023-06-26T11:58:36;31.78;41.69
75170;SHT31;63749;49.186;9.222;2023-06-26T12:01:02;31.42;42.33
75170;SHT31;63749;49.186;9.222;2023-06-26T12:03:29;31.62;42.19
75170;SHT31;63749;49.186;9.222;2023-06-26T12:05:55;31.71;42.27
75170;SHT31;63749;49.186;9.222;2023-06-26T12:08:20;31.96;42.29
75170;SHT31;63749;49.186;9.222;2023-06-26T12:10:46;32.32;41.79
75170;SHT31;63749;49.186;9.222;2023-06-26T12:13:12;32.27;42.05
75170;SHT31;63749;49.186;9.222;2023-06-26T12:15:37;32.22;41.07
75170;SHT31;63749;49.186;9.222;2023-06-26T12:18:09;32.13;41.59
75170;SHT31;63749;49.186;9.222;2023-06-26T12:20:40;32.47;41.54
75170;SHT31;63749;49.186;9.222;2023-06-26T12:23:11;32.41;41.48
75170;SHT31;63749;49.186;9.222;2023-06-26T12:25:37;32.47;41.21
75170;SHT31;63749;49.186;9.222;2023-06-26T12:28:02;32.60;41.27
75170;SHT31;63749;49.186;9.222;2023-06-26T12:30:28;32.57;40.73
75170;SHT31;63749;49.186;9.222;2023-06-26T12:32:53;32.85;39.68
75170;SHT31;63749;49.186;9.222;2023-06-26T12:35:18;33.19;38.81
75170;SHT31;63749;49.186;9.222;2023-06-26T12:37:44;33.73;38.64
75170;SHT31;63749;49.186;9.222;2023-06-26T12:40:18;34.24;37.81
75170;SHT31;63749;49.186;9.222;2023-06-26T12:42:49;34.62;36.53
75170;SHT31;63749;49.186;9.222;2023-06-26T12:45:15;35.26;35.69
75170;SHT31;63749;49.186;9.222;2023-06-26T12:47:40;35.22;35.73
75170;SHT31;63749;49.186;9.222;2023-06-26T12:50:09;35.16;35.44
75170;SHT31;63749;49.186;9.222;2023-06-26T12:52:34;35.22;35.18
75170;SHT31;63749;49.186;9.222;2023-06-26T12:54:59;35.15;35.69
75170;SHT31;63749;49.186;9.222;2023-06-26T12:57:25;34.95;35.63
75170;SHT31;63749;49.186;9.222;2023-06-26T12:59:51;35.55;35.05
75170;SHT31;63749;49.186;9.222;2023-06-26T13:02:16;36.05;34.04
75170;SHT31;63749;49.186;9.222;2023-06-26T13:04:42;36.29;33.31
75170;SHT31;63749;49.186;9.222;2023-06-26T13:07:09;35.77;33.73
75170;SHT31;63749;49.186;9.222;2023-06-26T13:09:36;36.05;33.65
75170;SHT31;63749;49.186;9.222;2023-06-26T13:12:10;36.73;33.52
75170;SHT31;63749;49.186;9.222;2023-06-26T13:18:37;37.13;32.51
75170;SHT31;63749;49.186;9.222;2023-06-26T15:06:03;36.51;28.21
75170;SHT31;63749;49.186;9.222;2023-06-26T15:09:05;34.95;30.14
75170;SHT31;63749;49.186;9.222;2023-06-26T15:11:56;34.23;30.85
75170;SHT31;63749;49.186;9.222;2023-06-26T16:05:29;34.43;26.52
75170;SHT31;63749;49.186;9.222;2023-06-26T19:35:15;23.00;41.40
75170;SHT31;63749;49.186;9.222;2023-06-26T19:37:40;22.94;42.45
75170;SHT31;63749;49.186;9.222;2023-06-26T19:40:06;23.04;41.61
75170;SHT31;63749;49.186;9.222;2023-06-26T19:42:33;22.94;41.97
75170;SHT31;63749;49.186;9.222;2023-06-26T19:44:58;22.81;42.01
75170;SHT31;63749;49.186;9.222;2023-06-26T19:47:25;22.81;41.94
75170;SHT31;63749;49.186;9.222;2023-06-26T19:49:50;22.74;41.67
75170;SHT31;63749;49.186;9.222;2023-06-26T19:52:16;22.70;41.44
75170;SHT31;63749;49.186;9.222;2023-06-26T19:54:41;22.60;41.64
75170;SHT31;63749;49.186;9.222;2023-06-26T19:57:07;22.53;42.03
75170;SHT31;63749;49.186;9.222;2023-06-26T19:59:37;22.42;42.17
75170;SHT31;63749;49.186;9.222;2023-06-26T20:02:03;22.39;42.30
75170;SHT31;63749;49.186;9.222;2023-06-26T20:04:29;22.32;42.61
75170;SHT31;63749;49.186;9.222;2023-06-26T20:06:55;22.35;42.92
75170;SHT31;63749;49.186;9.222;2023-06-26T20:09:28;22.30;43.10
75170;SHT31;63749;49.186;9.222;2023-06-26T20:11:53;22.35;43.54
75170;SHT31;63749;49.186;9.222;2023-06-26T20:14:18;22.35;43.42
75170;SHT31;63749;49.186;9.222;2023-06-26T20:16:44;22.36;43.45
75170;SHT31;63749;49.186;9.222;2023-06-26T20:19:09;22.30;43.71
75170;SHT31;63749;49.186;9.222;2023-06-26T20:21:35;22.22;44.32
75170;SHT31;63749;49.186;9.222;2023-06-26T20:24:00;22.17;44.52
75170;SHT31;63749;49.186;9.222;2023-06-26T20:26:25;22.13;44.83
75170;SHT31;63749;49.186;9.222;2023-06-26T20:28:51;22.08;45.65
75170;SHT31;63749;49.186;9.222;2023-06-26T20:31:16;22.02;46.02
75170;SHT31;63749;49.186;9.222;2023-06-26T20:33:41;21.98;46.73
75170;SHT31;63749;49.186;9.222;2023-06-26T20:36:07;22.01;46.83
75170;SHT31;63749;49.186;9.222;2023-06-26T20:38:32;22.01;46.84
75170;SHT31;63749;49.186;9.222;2023-06-26T20:40:58;21.99;47.33
75170;SHT31;63749;49.186;9.222;2023-06-26T20:43:24;21.93;47.45
75170;SHT31;63749;49.186;9.222;2023-06-26T20:45:49;21.91;47.63
75170;SHT31;63749;49.186;9.222;2023-06-26T20:48:15;21.88;47.91
75170;SHT31;63749;49.186;9.222;2023-06-26T20:50:41;21.85;47.92
75170;SHT31;63749;49.186;9.222;2023-06-26T20:53:07;21.78;48.31
75170;SHT31;63749;49.186;9.222;2023-06-26T20:55:32;21.77;48.53
75170;SHT31;63749;49.186;9.222;2023-06-26T20:57:58;21.74;48.83
75170;SHT31;63749;49.186;9.222;2023-06-26T21:00:23;21.72;49.28
75170;SHT31;63749;49.186;9.222;2023-06-26T21:02:49;21.68;48.92
75170;SHT31;63749;49.186;9.222;2023-06-26T21:05:14;21.62;49.05
75170;SHT31;63749;49.186;9.222;2023-06-26T21:07:40;21.62;49.31
75170;SHT31;63749;49.186;9.222;2023-06-26T21:10:05;21.59;49.32
75170;SHT31;63749;49.186;9.222;2023-06-26T21:12:31;21.55;49.45
75170;SHT31;63749;49.186;9.222;2023-06-26T21:14:56;21.51;49.70
75170;SHT31;63749;49.186;9.222;2023-06-26T21:17:22;21.53;49.50
75170;SHT31;63749;49.186;9.222;2023-06-26T21:19:47;21.53;49.51
75170;SHT31;63749;49.186;9.222;2023-06-26T21:22:13;21.55;49.01
75170;SHT31;63749;49.186;9.222;2023-06-26T21:24:38;21.58;48.82
75170;SHT31;63749;49.186;9.222;2023-06-26T21:27:04;21.55;48.94
75170;SHT31;63749;49.186;9.222;2023-06-26T21:29:30;21.54;48.91
75170;SHT31;63749;49.186;9.222;2023-06-26T21:31:55;21.62;48.97
75170;SHT31;63749;49.186;9.222;2023-06-26T21:34:20;21.69;48.64
75170;SHT31;63749;49.186;9.222;2023-06-26T21:36:47;21.75;48.58
75170;SHT31;63749;49.186;9.222;2023-06-26T21:39:12;21.79;48.43
75170;SHT31;63749;49.186;9.222;2023-06-26T21:41:38;21.82;48.24
75170;SHT31;63749;49.186;9.222;2023-06-26T21:44:03;21.85;47.87